Time,TemperatureF,DewpointF,PressureIn,WindDirection,WindDirectionDegrees,WindSpeedMPH,WindSpeedGustMPH,Humidity,HourlyPrecipIn,Conditions,Clouds,dailyrainin,SoftwareType,DateUTC
2013-01-22 00:08:00,6.8,-8.8,29.68,NW,326,2.0,4.0,44,0.00,,,0.00,WSDL version 420,2013-01-22 05:08:00,
2013-01-22 00:23:00,6.7,-8.9,29.68,WNW,301,3.1,5.4,44,0.00,,,0.00,WSDL version 420,2013-01-22 05:23:00,
2013-01-22 00:38:00,6.7,-8.9,29.68,WSW,248,1.7,5.4,44,0.00,,,0.00,WSDL version 420,2013-01-22 05:38:00,
2013-01-22 00:53:00,6.6,-9.0,29.68,NW,315,1.9,3.8,44,0.00,,,0.00,WSDL version 420,2013-01-22 05:53:00,
2013-01-22 01:08:00,6.2,-9.4,29.68,WNW,301,3.2,5.6,44,0.00,,,0.00,WSDL version 420,2013-01-22 06:08:00,
2013-01-22 01:23:00,6.0,-9.6,29.68,West,281,2.5,3.4,44,0.00,,,0.00,WSDL version 420,2013-01-22 06:23:00,
2013-01-22 01:38:00,5.8,-9.7,29.68,WNW,293,1.3,2.7,44,0.00,,,0.00,WSDL version 420,2013-01-22 06:38:00,
2013-01-22 01:53:00,6.2,-9.4,29.68,North,3,2.3,3.4,44,0.00,,,0.00,WSDL version 420,2013-01-22 06:53:00,
2013-01-22 02:08:00,6.5,-9.1,29.65,North,8,1.0,2.7,44,0.00,,,0.00,WSDL version 420,2013-01-22 07:08:00,
2013-01-22 02:23:00,6.7,-8.9,29.68,NNW,334,2.5,3.4,44,0.00,,,0.00,WSDL version 420,2013-01-22 07:23:00,
2013-01-22 02:38:00,6.7,-8.9,29.68,NNW,329,1.5,5.6,44,0.00,,,0.00,WSDL version 420,2013-01-22 07:38:00,
2013-01-22 02:53:00,6.7,-8.9,29.65,NW,319,2.0,3.1,44,0.00,,,0.00,WSDL version 420,2013-01-22 07:53:00,
2013-01-22 03:08:00,6.8,-8.8,29.68,NNW,338,2.8,5.4,44,0.00,,,0.00,WSDL version 420,2013-01-22 08:08:00,
2013-01-22 03:23:00,6.9,-8.7,29.68,WNW,293,0.0,2.9,44,0.00,,,0.00,WSDL version 420,2013-01-22 08:23:00,
2013-01-22 03:37:00,7.1,-8.6,29.68,WNW,293,0.0,1.1,44,0.00,,,0.00,WSDL version 420,2013-01-22 08:37:00,
2013-01-22 03:52:00,7.2,-8.4,29.68,WNW,293,0.0,0.0,44,0.00,,,0.00,WSDL version 420,2013-01-22 08:52:00,
2013-01-22 04:07:00,7.4,-8.2,29.65,WNW,293,0.0,0.0,44,0.00,,,0.00,WSDL version 420,2013-01-22 09:07:00,
2013-01-22 04:22:00,7.4,-8.2,29.68,WNW,293,0.0,0.0,44,0.00,,,0.00,WSDL version 420,2013-01-22 09:22:00,
2013-01-22 04:37:00,7.4,-8.3,29.68,WNW,293,0.0,0.0,44,0.00,,,0.00,WSDL version 420,2013-01-22 09:37:00,
2013-01-22 04:52:00,7.0,-8.6,29.68,WNW,293,0.0,0.0,44,0.00,,,0.00,WSDL version 420,2013-01-22 09:52:00,
2013-01-22 05:08:00,6.8,-8.8,29.68,North,360,1.2,2.5,44,0.00,,,0.00,WSDL version 420,2013-01-22 10:08:00,
2013-01-22 05:23:00,6.9,-8.7,29.68,North,360,0.0,0.0,44,0.00,,,0.00,WSDL version 420,2013-01-22 10:23:00,
2013-01-22 05:38:00,6.6,-9.0,29.68,West,270,0.0,0.9,44,0.00,,,0.00,WSDL version 420,2013-01-22 10:38:00,
2013-01-22 05:53:00,6.7,-8.9,29.68,West,270,0.0,0.0,44,0.00,,,0.00,WSDL version 420,2013-01-22 10:53:00,
2013-01-22 06:08:00,6.7,-8.9,29.68,West,270,0.0,0.0,44,0.00,,,0.00,WSDL version 420,2013-01-22 11:08:00,
2013-01-22 06:23:00,6.7,-8.9,29.68,West,270,0.0,0.0,44,0.00,,,0.00,WSDL version 420,2013-01-22 11:23:00,
2013-01-22 06:38:00,6.3,-9.2,29.71,NE,45,0.6,1.3,44,0.00,,,0.00,WSDL version 420,2013-01-22 11:38:00,
2013-01-22 06:53:00,6.0,-9.6,29.71,ENE,68,0.0,0.0,44,0.00,,,0.00,WSDL version 420,2013-01-22 11:53:00,
2013-01-22 07:08:00,5.8,-9.7,29.71,East,90,0.0,0.0,44,0.00,,,0.00,WSDL version 420,2013-01-22 12:08:00,
2013-01-22 07:23:00,5.6,-9.9,29.71,East,90,0.0,0.0,44,0.00,,,0.00,WSDL version 420,2013-01-22 12:23:00,
2013-01-22 07:38:00,5.3,-10.2,29.71,SE,132,0.0,0.0,44,0.00,,,0.00,WSDL version 420,2013-01-22 12:38:00,
2013-01-22 07:53:00,4.9,-10.5,29.74,SE,129,0.4,2.5,44,0.00,,,0.00,WSDL version 420,2013-01-22 12:53:00,
2013-01-22 08:08:00,4.9,-10.6,29.71,South,180,0.3,1.3,44,0.00,,,0.00,WSDL version 420,2013-01-22 13:08:00,
2013-01-22 08:54:00,7.6,-8.1,29.71,SSW,199,3.0,6.0,44,0.00,,,0.00,WSDL version 420,2013-01-22 13:54:00,
2013-01-22 09:09:00,9.7,-6.1,29.71,East,90,0.8,4.0,44,0.00,,,0.00,WSDL version 420,2013-01-22 14:09:00,
2013-01-22 09:24:00,11.4,-4.5,29.71,NW,319,0.9,2.5,44,0.00,,,0.00,WSDL version 420,2013-01-22 14:24:00,
2013-01-22 09:39:00,13.8,5.9,29.71,NNW,328,0.7,3.4,66,0.00,,,0.00,WSDL version 420,2013-01-22 14:39:00,
2013-01-22 09:54:00,12.9,3.1,29.71,WNW,293,4.0,8.5,61,0.00,,,0.00,WSDL version 420,2013-01-22 14:54:00,
2013-01-22 10:09:00,10.9,1.2,29.71,WNW,289,4.3,10.1,61,0.00,,,0.00,WSDL version 420,2013-01-22 15:09:00,
2013-01-22 10:23:00,11.4,1.7,29.74,WNW,301,7.2,10.5,61,0.00,,,0.00,WSDL version 420,2013-01-22 15:23:00,
2013-01-22 10:38:00,12.0,2.2,29.74,WNW,296,9.2,13.4,61,0.00,,,0.00,WSDL version 420,2013-01-22 15:38:00,
2013-01-22 10:53:00,12.7,2.9,29.74,WNW,299,8.9,14.1,61,0.00,,,0.00,WSDL version 420,2013-01-22 15:53:00,
2013-01-22 11:08:00,10.9,1.2,29.74,WNW,283,5.1,14.5,61,0.00,,,0.00,WSDL version 420,2013-01-22 16:08:00,
2013-01-22 11:23:00,10.5,0.9,29.74,NW,305,6.6,15.2,61,0.00,,,0.00,WSDL version 420,2013-01-22 16:23:00,
2013-01-22 11:38:00,10.5,0.9,29.71,West,263,4.0,17.4,61,0.00,,,0.00,WSDL version 420,2013-01-22 16:38:00,
2013-01-22 11:53:00,13.0,1.2,29.74,NW,311,4.9,14.5,53,0.00,,,0.00,WSDL version 420,2013-01-22 16:53:00,
2013-01-22 12:08:00,13.9,-0.1,29.71,WNW,293,7.8,8.9,49,0.00,,,0.00,WSDL version 420,2013-01-22 17:08:00,
2013-01-22 12:17:00,60.0,58.0,29.92,WNW,292,10.0,18.0,98,0.27,,,3.29,WSDL version 000,2013-01-22 17:17:00,
2013-01-22 12:23:00,12.1,-1.8,29.71,NW,319,7.9,12.8,49,0.00,,,0.00,WSDL version 420,2013-01-22 17:23:00,
2013-01-22 12:33:00,10.7,-3.1,29.71,NE,45,2.6,7.4,49,0.00,,,0.00,WSDL version 420,2013-01-22 17:33:00,
2013-01-22 12:38:00,11.3,-2.5,29.71,South,183,2.3,10.7,49,0.00,,,0.00,WSDL version 420,2013-01-22 17:38:00,
2013-01-22 12:48:00,11.3,-2.6,29.71,NNW,338,4.3,11.4,49,0.00,,,0.00,WSDL version 420,2013-01-22 17:48:00,
2013-01-22 12:53:00,11.0,-2.8,29.71,NW,308,5.6,10.5,49,0.00,,,0.00,WSDL version 420,2013-01-22 17:53:00,
2013-01-22 13:03:00,11.6,-2.3,29.71,NNW,338,4.0,12.5,49,0.00,,,0.00,WSDL version 420,2013-01-22 18:03:00,
2013-01-22 13:08:00,11.7,-2.2,29.71,NNE,13,6.6,12.5,49,0.00,,,0.00,WSDL version 420,2013-01-22 18:08:00,
2013-01-22 13:13:00,12.1,-1.8,29.71,NW,315,8.0,14.8,49,0.00,,,0.00,WSDL version 420,2013-01-22 18:13:00,
2013-01-22 13:18:00,12.2,-1.7,29.71,NW,312,7.8,14.8,49,0.00,,,0.00,WSDL version 420,2013-01-22 18:18:00,
2013-01-22 13:23:00,12.0,-1.9,29.71,NNW,330,7.5,14.8,49,0.00,,,0.00,WSDL version 420,2013-01-22 18:23:00,
2013-01-22 13:33:00,12.1,-1.8,29.71,NNW,345,7.9,16.8,49,0.00,,,0.00,WSDL version 420,2013-01-22 18:33:00,
2013-01-22 13:43:00,11.3,-2.6,29.71,NW,315,6.3,15.2,49,0.00,,,0.00,WSDL version 420,2013-01-22 18:43:00,
2013-01-22 13:48:00,11.5,-2.4,29.71,NW,315,7.4,15.2,49,0.00,,,0.00,WSDL version 420,2013-01-22 18:48:00,
2013-01-22 13:58:00,11.2,-2.7,29.74,WNW,296,7.3,13.2,49,0.00,,,0.00,WSDL version 420,2013-01-22 18:58:00,
2013-01-22 14:03:00,10.7,-3.2,29.74,WNW,284,8.1,13.2,49,0.00,,,0.00,WSDL version 420,2013-01-22 19:03:00,
2013-01-22 14:13:00,10.2,-3.6,29.77,West,281,10.4,17.0,49,0.00,,,0.00,WSDL version 420,2013-01-22 19:13:00,
2013-01-22 14:18:00,10.0,-3.8,29.77,West,270,10.2,17.0,49,0.00,,,0.00,WSDL version 420,2013-01-22 19:18:00,
2013-01-22 14:23:00,9.8,-3.9,29.77,WNW,293,9.3,15.7,49,0.00,,,0.00,WSDL version 420,2013-01-22 19:23:00,
2013-01-22 14:28:00,10.0,-3.8,29.74,WNW,287,7.1,13.0,49,0.00,,,0.00,WSDL version 420,2013-01-22 19:28:00,
2013-01-22 14:38:00,11.7,-2.2,29.74,WNW,286,5.9,11.2,49,0.00,,,0.00,WSDL version 420,2013-01-22 19:38:00,
2013-01-22 14:43:00,10.8,-3.0,29.74,WNW,285,9.4,18.8,49,0.00,,,0.00,WSDL version 420,2013-01-22 19:43:00,
2013-01-22 14:48:00,10.7,-3.2,29.74,WNW,289,8.5,18.8,49,0.00,,,0.00,WSDL version 420,2013-01-22 19:48:00,
2013-01-22 14:58:00,9.9,-3.9,29.74,NW,306,6.6,12.8,49,0.00,,,0.00,WSDL version 420,2013-01-22 19:58:00,
2013-01-22 15:03:00,9.7,-4.1,29.74,NW,323,3.7,12.8,49,0.00,,,0.00,WSDL version 420,2013-01-22 20:03:00,
2013-01-22 15:12:00,9.5,-4.3,29.74,WNW,289,5.5,8.5,49,0.00,,,0.00,WSDL version 420,2013-01-22 20:12:00,
2013-01-22 15:17:00,9.5,-4.2,29.74,NW,318,5.1,8.5,49,0.00,,,0.00,WSDL version 420,2013-01-22 20:17:00,
2013-01-22 15:27:00,8.9,-4.9,29.77,WNW,285,6.2,12.8,49,0.00,,,0.00,WSDL version 420,2013-01-22 20:27:00,
2013-01-22 15:37:00,8.1,-5.6,29.77,WNW,300,7.5,10.3,49,0.00,,,0.00,WSDL version 420,2013-01-22 20:37:00,
2013-01-22 15:42:00,7.7,-6.0,29.77,NW,312,6.1,10.1,49,0.00,,,0.00,WSDL version 420,2013-01-22 20:42:00,
2013-01-22 15:52:00,7.1,-6.6,29.77,WNW,293,9.6,17.7,49,0.00,,,0.00,WSDL version 420,2013-01-22 20:52:00,
2013-01-22 15:57:00,6.8,-6.9,29.77,West,278,7.8,15.4,49,0.00,,,0.00,WSDL version 420,2013-01-22 20:57:00,
2013-01-22 16:02:00,6.3,-7.3,29.77,WNW,293,7.3,15.7,49,0.00,,,0.00,WSDL version 420,2013-01-22 21:02:00,
2013-01-22 16:12:00,5.9,-7.7,29.80,West,281,6.7,14.1,49,0.00,,,0.00,WSDL version 420,2013-01-22 21:12:00,
2013-01-22 16:22:00,5.4,-8.1,29.80,WNW,287,10.4,13.2,49,0.00,,,0.00,WSDL version 420,2013-01-22 21:22:00,
2013-01-22 16:27:00,5.3,-8.2,29.80,WNW,298,6.5,13.2,49,0.00,,,0.00,WSDL version 420,2013-01-22 21:27:00,
2013-01-22 16:32:00,5.1,-8.4,29.80,WNW,289,7.7,12.3,49,0.00,,,0.00,WSDL version 420,2013-01-22 21:32:00,
2013-01-22 16:37:00,5.1,-8.4,29.80,WNW,286,5.6,13.2,49,0.00,,,0.00,WSDL version 420,2013-01-22 21:37:00,
2013-01-22 16:47:00,4.7,-8.8,29.80,West,264,6.7,10.5,49,0.00,,,0.00,WSDL version 420,2013-01-22 21:47:00,
2013-01-22 16:52:00,4.5,-8.9,29.80,West,270,5.1,10.1,49,0.00,,,0.00,WSDL version 420,2013-01-22 21:52:00,
2013-01-22 16:57:00,4.5,-8.9,29.80,WNW,296,6.6,10.1,49,0.00,,,0.00,WSDL version 420,2013-01-22 21:57:00,
2013-01-22 17:02:00,4.4,-9.1,29.80,WNW,299,7.6,13.0,49,0.00,,,0.00,WSDL version 420,2013-01-22 22:02:00,
2013-01-22 17:07:00,4.4,-9.1,29.80,WNW,296,9.4,14.3,49,0.00,,,0.00,WSDL version 420,2013-01-22 22:07:00,
2013-01-22 17:13:00,4.3,-9.2,29.80,West,280,7.7,14.3,49,0.00,,,0.00,WSDL version 420,2013-01-22 22:13:00,
2013-01-22 17:18:00,4.2,-9.3,29.80,NW,304,4.3,12.3,49,0.00,,,0.00,WSDL version 420,2013-01-22 22:18:00,
2013-01-22 17:28:00,4.0,-9.5,29.83,WNW,299,8.8,13.0,49,0.00,,,0.00,WSDL version 420,2013-01-22 22:28:00,
2013-01-22 17:33:00,3.9,-9.5,29.83,West,259,5.9,10.7,49,0.00,,,0.00,WSDL version 420,2013-01-22 22:33:00,
2013-01-22 17:43:00,3.6,-9.9,29.83,WSW,257,5.9,11.0,49,0.00,,,0.00,WSDL version 420,2013-01-22 22:43:00,
2013-01-22 17:48:00,3.4,-10.1,29.83,WNW,283,5.5,10.7,49,0.00,,,0.00,WSDL version 420,2013-01-22 22:48:00,
2013-01-22 17:53:00,3.1,-10.3,29.83,WNW,284,5.7,10.7,49,0.00,,,0.00,WSDL version 420,2013-01-22 22:53:00,
2013-01-22 17:58:00,3.1,-10.3,29.83,West,280,9.4,13.2,49,0.00,,,0.00,WSDL version 420,2013-01-22 22:58:00,
2013-01-22 18:03:00,2.9,-10.5,29.83,West,267,11.2,14.1,49,0.00,,,0.00,WSDL version 420,2013-01-22 23:03:00,
2013-01-22 18:08:00,2.7,-10.6,29.83,WNW,284,7.9,14.1,49,0.00,,,0.00,WSDL version 420,2013-01-22 23:08:00,
2013-01-22 18:18:00,2.6,-10.7,29.83,WNW,301,6.4,15.4,49,0.00,,,0.00,WSDL version 420,2013-01-22 23:18:00,
2013-01-22 18:23:00,2.4,-10.9,29.83,WNW,287,7.2,13.4,49,0.00,,,0.00,WSDL version 420,2013-01-22 23:23:00,
2013-01-22 18:28:00,2.3,-11.1,29.85,NW,309,5.5,13.4,49,0.00,,,0.00,WSDL version 420,2013-01-22 23:28:00,
2013-01-22 18:33:00,2.2,-11.2,29.85,WNW,299,5.4,9.8,49,0.00,,,0.00,WSDL version 420,2013-01-22 23:33:00,
2013-01-22 18:43:00,1.8,-11.5,29.85,NNW,330,5.5,8.1,49,0.00,,,0.00,WSDL version 420,2013-01-22 23:43:00,
2013-01-22 18:48:00,1.8,-11.5,29.85,NNW,329,8.4,15.4,49,0.00,,,0.00,WSDL version 420,2013-01-22 23:48:00,
2013-01-22 18:53:00,1.7,-11.6,29.85,NW,311,7.2,17.0,49,0.00,,,0.00,WSDL version 420,2013-01-22 23:53:00,
2013-01-22 18:58:00,1.6,-11.7,29.85,NW,325,9.5,17.0,49,0.00,,,0.00,WSDL version 420,2013-01-22 23:58:00,
2013-01-22 19:08:00,1.5,-11.8,29.85,NNW,338,7.4,17.2,49,0.00,,,0.00,WSDL version 420,2013-01-23 00:08:00,
2013-01-22 19:13:00,1.3,-12.0,29.85,NNW,341,5.1,13.9,49,0.00,,,0.00,WSDL version 420,2013-01-23 00:13:00,
2013-01-22 19:18:00,1.1,-12.2,29.85,WSW,256,5.3,13.9,49,0.00,,,0.00,WSDL version 420,2013-01-23 00:18:00,
2013-01-22 19:28:00,0.6,-12.6,29.85,NNW,331,4.6,10.5,49,0.00,,,0.00,WSDL version 420,2013-01-23 00:28:00,
2013-01-22 19:33:00,0.6,-12.7,29.85,NW,324,5.2,10.5,49,0.00,,,0.00,WSDL version 420,2013-01-23 00:33:00,
2013-01-22 19:38:00,0.5,-12.7,29.85,NW,312,6.8,10.5,49,0.00,,,0.00,WSDL version 420,2013-01-23 00:38:00,
2013-01-22 19:43:00,0.3,-13.0,29.83,NNW,338,5.8,10.5,49,0.00,,,0.00,WSDL version 420,2013-01-23 00:43:00,
2013-01-22 19:53:00,0.1,-13.1,29.83,SSW,199,5.5,10.3,49,0.00,,,0.00,WSDL version 420,2013-01-23 00:53:00,
2013-01-22 19:58:00,-0.3,-13.5,29.85,NNW,347,4.9,13.2,49,0.00,,,0.00,WSDL version 420,2013-01-23 00:58:00,
2013-01-22 20:02:00,-0.3,-13.5,29.85,SW,228,4.3,16.1,49,0.00,,,0.00,WSDL version 420,2013-01-23 01:02:00,
2013-01-22 20:13:00,-0.7,-13.9,29.85,NE,53,4.2,13.0,49,0.00,,,0.00,WSDL version 420,2013-01-23 01:13:00,
2013-01-22 20:22:00,-1.0,-14.2,29.85,WSW,238,3.3,12.8,49,0.00,,,0.00,WSDL version 420,2013-01-23 01:22:00,
2013-01-22 20:27:00,-1.1,-14.3,29.85,NW,325,5.2,9.6,49,0.00,,,0.00,WSDL version 420,2013-01-23 01:27:00,
2013-01-22 20:32:00,-1.3,-14.4,29.85,North,354,5.2,9.6,49,0.00,,,0.00,WSDL version 420,2013-01-23 01:32:00,
2013-01-22 20:37:00,-1.6,-14.7,29.85,NW,321,8.3,13.0,49,0.00,,,0.00,WSDL version 420,2013-01-23 01:37:00,
2013-01-22 20:42:00,-1.7,-14.8,29.85,NW,315,5.1,13.0,49,0.00,,,0.00,WSDL version 420,2013-01-23 01:42:00,
2013-01-22 20:47:00,-1.9,-15.0,29.85,WNW,284,6.4,10.5,49,0.00,,,0.00,WSDL version 420,2013-01-23 01:47:00,
2013-01-22 20:57:00,-2.1,-15.2,29.85,NNW,338,3.2,6.7,49,0.00,,,0.00,WSDL version 420,2013-01-23 01:57:00,
2013-01-22 21:07:00,-2.4,-15.5,29.85,NW,308,1.1,5.4,49,0.00,,,0.00,WSDL version 420,2013-01-23 02:07:00,
2013-01-22 21:17:00,-2.8,-15.9,29.85,East,79,2.5,4.9,49,0.00,,,0.00,WSDL version 420,2013-01-23 02:17:00,
2013-01-22 21:27:00,-3.1,-16.2,29.85,West,280,1.8,6.3,49,0.00,,,0.00,WSDL version 420,2013-01-23 02:27:00,
2013-01-22 21:37:00,-3.2,-16.2,29.85,WNW,293,6.2,8.1,49,0.00,,,0.00,WSDL version 420,2013-01-23 02:37:00,
2013-01-22 21:42:00,-3.3,-16.3,29.85,NW,318,2.1,8.1,49,0.00,,,0.00,WSDL version 420,2013-01-23 02:42:00,
2013-01-22 21:47:00,-3.4,-16.4,29.85,SSW,206,3.3,6.0,49,0.00,,,0.00,WSDL version 420,2013-01-23 02:47:00,
2013-01-22 21:52:00,-3.6,-16.6,29.85,East,96,1.6,6.3,49,0.00,,,0.00,WSDL version 420,2013-01-23 02:52:00,
2013-01-22 22:02:00,-4.0,-17.0,29.88,NW,326,4.4,8.1,49,0.00,,,0.00,WSDL version 420,2013-01-23 03:02:00,
2013-01-22 22:13:00,-4.1,-17.1,29.88,North,10,3.9,7.4,49,0.00,,,0.00,WSDL version 420,2013-01-23 03:13:00,
2013-01-22 22:18:00,-4.3,-17.3,29.88,NW,323,2.7,4.9,49,0.00,,,0.00,WSDL version 420,2013-01-23 03:18:00,
2013-01-22 22:23:00,-4.3,-17.3,29.88,NNE,23,3.1,4.9,49,0.00,,,0.00,WSDL version 420,2013-01-23 03:23:00,
2013-01-22 22:28:00,-4.5,-17.4,29.88,NNW,332,2.2,4.9,49,0.00,,,0.00,WSDL version 420,2013-01-23 03:28:00,
2013-01-22 22:33:00,-4.7,-17.7,29.88,WSW,244,1.8,3.6,49,0.00,,,0.00,WSDL version 420,2013-01-23 03:33:00,
2013-01-22 22:43:00,-4.8,-17.8,29.88,North,360,2.8,4.9,49,0.00,,,0.00,WSDL version 420,2013-01-23 03:43:00,
2013-01-22 22:48:00,-4.8,-17.8,29.88,NNW,345,2.3,4.3,49,0.00,,,0.00,WSDL version 420,2013-01-23 03:48:00,
2013-01-22 22:53:00,-4.8,-17.8,29.88,NNE,16,2.3,4.3,49,0.00,,,0.00,WSDL version 420,2013-01-23 03:53:00,
2013-01-22 22:58:00,-4.9,-17.8,29.88,ENE,64,2.5,3.8,49,0.00,,,0.00,WSDL version 420,2013-01-23 03:58:00,
2013-01-22 23:03:00,-4.8,-17.8,29.88,ENE,68,1.8,3.1,49,0.00,,,0.00,WSDL version 420,2013-01-23 04:03:00,
2013-01-22 23:13:00,-4.8,-17.8,29.88,NNW,330,4.2,7.6,49,0.00,,,0.00,WSDL version 420,2013-01-23 04:13:00,
2013-01-22 23:18:00,-4.9,-17.8,29.88,NW,326,3.2,7.6,49,0.00,,,0.00,WSDL version 420,2013-01-23 04:18:00,
2013-01-22 23:23:00,-5.0,-17.9,29.88,WNW,287,4.3,6.0,49,0.00,,,0.00,WSDL version 420,2013-01-23 04:23:00,
2013-01-22 23:33:00,-5.4,-18.3,29.88,NW,326,2.8,5.6,49,0.00,,,0.00,WSDL version 420,2013-01-23 04:33:00,
2013-01-22 23:38:00,-5.4,-18.3,29.88,NW,321,3.1,5.6,49,0.00,,,0.00,WSDL version 420,2013-01-23 04:38:00,
2013-01-22 23:43:00,-5.4,-18.3,29.88,NW,308,2.4,5.6,49,0.00,,,0.00,WSDL version 420,2013-01-23 04:43:00,
2013-01-22 23:53:00,-5.7,-18.6,29.88,NW,304,1.9,5.6,49,0.00,,,0.00,WSDL version 420,2013-01-23 04:53:00,
2013-01-22 23:58:00,-6.0,-18.9,29.88,WNW,299,4.7,7.8,49,0.00,,,0.00,WSDL version 420,2013-01-23 04:58:00,